Time,TemperatureF,DewpointF,PressureIn,WindDirection,WindDirectionDegrees,WindSpeedMPH,WindSpeedGustMPH,Humidity,HourlyPrecipIn,Conditions,Clouds,dailyrainin,SoftwareType,DateUTC
2013-06-23 00:01:00,70.2,64.1,30.14,SSW,210,0.0,0.0,81,0.00,,,0.00,WeatherCatV1.15B25,2013-06-23 04:01:00,
2013-06-23 00:03:00,70.2,64.1,30.14,SSW,210,0.0,0.0,81,0.00,,,0.00,WeatherCatV1.15B25,2013-06-23 04:03:00,
2013-06-23 00:08:00,70.0,63.9,30.15,SSW,210,1.0,3.0,81,0.00,,,0.00,WeatherCatV1.15B25,2013-06-23 04:08:00,
2013-06-23 00:13:00,70.0,63.9,30.14,SSW,210,0.0,0.0,81,0.00,,,0.00,WeatherCatV1.15B25,2013-06-23 04:13:00,
2013-06-23 00:18:00,69.8,63.3,30.14,SSW,210,0.0,0.0,80,0.00,,,0.00,WeatherCatV1.15B25,2013-06-23 04:18:00,
2013-06-23 00:23:00,69.8,63.7,30.15,SSW,210,0.0,0.0,81,0.00,,,0.00,WeatherCatV1.15B25,2013-06-23 04:23:00,
2013-06-23 00:28:00,69.8,64.0,30.15,SSW,210,0.0,2.0,82,0.00,,,0.00,WeatherCatV1.15B25,2013-06-23 04:28:00,
2013-06-23 00:33:00,69.8,63.7,30.14,SSW,210,0.0,0.0,81,0.00,,,0.00,WeatherCatV1.15B25,2013-06-23 04:33:00,
2013-06-23 00:38:00,69.8,63.7,30.14,SSW,210,0.0,0.0,81,0.00,,,0.00,WeatherCatV1.15B25,2013-06-23 04:38:00,
2013-06-23 00:43:00,69.6,63.9,30.15,SSW,210,0.0,2.0,82,0.00,,,0.00,WeatherCatV1.15B25,2013-06-23 04:43:00,
2013-06-23 00:48:00,69.6,63.9,30.14,SSW,210,0.0,0.0,82,0.00,,,0.00,WeatherCatV1.15B25,2013-06-23 04:48:00,
2013-06-23 00:53:00,69.7,63.9,30.15,SSW,210,0.0,0.0,82,0.00,,,0.00,WeatherCatV1.15B25,2013-06-23 04:53:00,
2013-06-23 00:58:00,69.7,63.9,30.14,SSW,210,0.0,0.0,82,0.00,,,0.00,WeatherCatV1.15B25,2013-06-23 04:58:00,
2013-06-23 01:03:00,69.6,63.9,30.14,SSW,210,0.0,0.0,82,0.00,,,0.00,WeatherCatV1.15B25,2013-06-23 05:03:00,
2013-06-23 01:08:00,69.6,63.9,30.14,SSW,210,0.0,0.0,82,0.00,,,0.00,WeatherCatV1.15B25,2013-06-23 05:08:00,
2013-06-23 01:13:00,69.5,63.4,30.15,SSW,210,0.0,0.0,81,0.00,,,0.00,WeatherCatV1.15B25,2013-06-23 05:13:00,
2013-06-23 01:18:00,69.3,63.6,30.14,SSW,210,0.0,0.0,82,0.00,,,0.00,WeatherCatV1.15B25,2013-06-23 05:18:00,
2013-06-23 01:23:00,69.3,63.6,30.15,SSW,210,0.0,0.0,82,0.00,,,0.00,WeatherCatV1.15B25,2013-06-23 05:23:00,
2013-06-23 01:28:00,69.3,63.6,30.14,SSW,210,0.0,0.0,82,0.00,,,0.00,WeatherCatV1.15B25,2013-06-23 05:28:00,
2013-06-23 01:33:00,69.2,63.5,30.14,SSW,210,0.0,0.0,82,0.00,,,0.00,WeatherCatV1.15B25,2013-06-23 05:33:00,
2013-06-23 01:38:00,69.2,63.5,30.14,SSW,210,0.0,0.0,82,0.00,,,0.00,WeatherCatV1.15B25,2013-06-23 05:38:00,
2013-06-23 01:43:00,69.1,63.4,30.15,SSW,210,0.0,0.0,82,0.00,,,0.00,WeatherCatV1.15B25,2013-06-23 05:43:00,
2013-06-23 01:48:00,69.2,63.5,30.15,SSW,210,0.0,0.0,82,0.00,,,0.00,WeatherCatV1.15B25,2013-06-23 05:48:00,
2013-06-23 01:53:00,69.2,63.8,30.14,SSW,210,0.0,0.0,83,0.00,,,0.00,WeatherCatV1.15B25,2013-06-23 05:53:00,
2013-06-23 01:58:00,69.0,63.3,30.14,SSW,210,0.0,1.0,82,0.00,,,0.00,WeatherCatV1.15B25,2013-06-23 05:58:00,
2013-06-23 02:00:00,69.0,63.6,30.14,SSW,210,0.0,1.0,83,0.00,,,0.00,WeatherCatV1.15B25,2013-06-23 06:00:00,
2013-06-23 02:05:00,68.8,63.1,30.14,SSW,210,0.0,3.0,82,0.00,,,0.00,WeatherCatV1.15B25,2013-06-23 06:05:00,
2013-06-23 02:10:00,68.8,62.7,30.14,SSW,210,0.0,2.0,81,0.00,,,0.00,WeatherCatV1.15B25,2013-06-23 06:10:00,
2013-06-23 02:15:00,68.8,63.1,30.14,SSW,210,0.0,0.0,82,0.00,,,0.00,WeatherCatV1.15B25,2013-06-23 06:15:00,
2013-06-23 02:20:00,68.8,63.4,30.14,SSW,210,0.0,0.0,83,0.00,,,0.00,WeatherCatV1.15B25,2013-06-23 06:20:00,
2013-06-23 02:25:00,68.7,63.3,30.13,SSW,210,0.0,2.0,83,0.00,,,0.00,WeatherCatV1.15B25,2013-06-23 06:25:00,
2013-06-23 02:30:00,68.5,63.5,30.14,SSW,210,0.0,3.0,84,0.00,,,0.00,WeatherCatV1.15B25,2013-06-23 06:30:00,
2013-06-23 02:35:00,68.5,63.1,30.13,SSW,210,0.0,0.0,83,0.00,,,0.00,WeatherCatV1.15B25,2013-06-23 06:35:00,
2013-06-23 02:40:00,68.4,63.0,30.13,SSW,210,0.0,3.0,83,0.00,,,0.00,WeatherCatV1.15B25,2013-06-23 06:40:00,
2013-06-23 02:45:00,68.3,63.3,30.13,SSW,210,1.0,2.0,84,0.00,,,0.00,WeatherCatV1.15B25,2013-06-23 06:45:00,
2013-06-23 02:50:00,68.3,63.3,30.12,SSW,210,0.0,0.0,84,0.00,,,0.00,WeatherCatV1.15B25,2013-06-23 06:50:00,
2013-06-23 02:55:00,68.3,63.3,30.12,SSW,210,0.0,0.0,84,0.00,,,0.00,WeatherCatV1.15B25,2013-06-23 06:55:00,
2013-06-23 03:00:00,68.3,63.3,30.12,SSW,210,0.0,0.0,84,0.00,,,0.00,WeatherCatV1.15B25,2013-06-23 07:00:00,
2013-06-23 03:05:00,68.3,63.3,30.12,SSW,210,0.0,0.0,84,0.00,,,0.00,WeatherCatV1.15B25,2013-06-23 07:05:00,
2013-06-23 03:10:00,68.4,63.4,30.12,SSW,210,0.0,0.0,84,0.00,,,0.00,WeatherCatV1.15B25,2013-06-23 07:10:00,
2013-06-23 03:15:00,68.3,63.3,30.12,SSW,210,0.0,0.0,84,0.00,,,0.00,WeatherCatV1.15B25,2013-06-23 07:15:00,
2013-06-23 03:20:00,-999.0,32.0,30.12,North,0,0.0,0.0,50,0.00,,,0.00,WeatherCatV1.15B25,2013-06-23 07:20:00,
2013-06-23 03:25:00,67.2,62.9,30.12,SSW,210,0.0,0.0,86,0.00,,,0.00,WeatherCatV1.15B25,2013-06-23 07:25:00,
2013-06-23 03:30:00,67.0,62.7,30.12,SSW,210,0.0,1.0,86,0.00,,,0.00,WeatherCatV1.15B25,2013-06-23 07:30:00,
2013-06-23 03:35:00,67.0,62.7,30.12,SSW,210,0.0,0.0,86,0.00,,,0.00,WeatherCatV1.15B25,2013-06-23 07:35:00,
2013-06-23 03:40:00,67.0,62.7,30.12,SSW,210,0.0,0.0,86,0.00,,,0.00,WeatherCatV1.15B25,2013-06-23 07:40:00,
2013-06-23 03:45:00,67.0,62.7,30.12,SSW,210,0.0,0.0,86,0.00,,,0.00,WeatherCatV1.15B25,2013-06-23 07:45:00,
2013-06-23 03:50:00,67.0,62.7,30.12,SSW,210,0.0,0.0,86,0.00,,,0.00,WeatherCatV1.15B25,2013-06-23 07:50:00,
2013-06-23 03:55:00,67.0,62.7,30.11,SSW,210,0.0,0.0,86,0.00,,,0.00,WeatherCatV1.15B25,2013-06-23 07:55:00,
2013-06-23 04:00:00,67.1,62.8,30.11,SSW,210,0.0,0.0,86,0.00,,,0.00,WeatherCatV1.15B25,2013-06-23 08:00:00,
2013-06-23 04:05:00,-999.0,32.0,30.10,North,0,0.0,0.0,50,0.00,,,0.00,WeatherCatV1.15B25,2013-06-23 08:05:00,
2013-06-23 04:10:00,-999.0,32.0,30.11,SSW,210,0.0,0.0,50,0.00,,,0.00,WeatherCatV1.15B25,2013-06-23 08:10:00,
2013-06-23 04:15:00,-999.0,32.0,30.11,SSW,210,0.0,0.0,50,0.00,,,0.00,WeatherCatV1.15B25,2013-06-23 08:15:00,
2013-06-23 04:20:00,-999.0,32.0,30.11,SSW,210,0.0,0.0,50,0.00,,,0.00,WeatherCatV1.15B25,2013-06-23 08:20:00,
2013-06-23 04:25:00,-999.0,32.0,30.11,SSW,210,0.0,0.0,50,0.00,,,0.00,WeatherCatV1.15B25,2013-06-23 08:25:00,
2013-06-23 04:30:00,-999.0,32.0,30.12,SSW,210,0.0,0.0,50,0.00,,,0.00,WeatherCatV1.15B25,2013-06-23 08:30:00,
2013-06-23 04:35:00,-999.0,32.0,30.11,SSW,210,0.0,0.0,50,0.00,,,0.00,WeatherCatV1.15B25,2013-06-23 08:35:00,
2013-06-23 04:40:00,-999.0,32.0,30.12,SSW,210,0.0,0.0,50,0.00,,,0.00,WeatherCatV1.15B25,2013-06-23 08:40:00,
2013-06-23 04:45:00,-999.0,32.0,30.11,SSW,210,1.0,1.0,50,0.00,,,0.00,WeatherCatV1.15B25,2013-06-23 08:45:00,
2013-06-23 04:50:00,-999.0,32.0,30.11,SSW,210,0.0,0.0,50,0.00,,,0.00,WeatherCatV1.15B25,2013-06-23 08:50:00,
2013-06-23 04:55:00,-999.0,32.0,30.11,SSW,210,0.0,0.0,50,0.00,,,0.00,WeatherCatV1.15B25,2013-06-23 08:55:00,
2013-06-23 05:00:00,-999.0,32.0,30.10,SSW,210,0.0,0.0,50,0.00,,,0.00,WeatherCatV1.15B25,2013-06-23 09:00:00,
2013-06-23 05:05:00,65.3,61.6,30.11,SSW,210,0.0,0.0,88,0.00,,,0.00,WeatherCatV1.15B25,2013-06-23 09:05:00,
2013-06-23 05:10:00,65.2,62.2,30.11,SSW,210,0.0,0.0,90,0.00,,,0.00,WeatherCatV1.15B25,2013-06-23 09:10:00,
2013-06-23 05:15:00,65.3,62.3,30.11,SSW,210,0.0,0.0,90,0.00,,,0.00,WeatherCatV1.15B25,2013-06-23 09:15:00,
2013-06-23 05:20:00,65.3,62.3,30.11,SSW,210,0.0,0.0,90,0.00,,,0.00,WeatherCatV1.15B25,2013-06-23 09:20:00,
2013-06-23 05:25:00,65.2,62.2,30.11,SSW,210,0.0,0.0,90,0.00,,,0.00,WeatherCatV1.15B25,2013-06-23 09:25:00,
2013-06-23 05:30:00,65.2,62.2,30.11,SSW,210,0.0,0.0,90,0.00,,,0.00,WeatherCatV1.15B25,2013-06-23 09:30:00,
2013-06-23 05:35:00,65.2,62.2,30.11,SSW,210,0.0,0.0,90,0.00,,,0.00,WeatherCatV1.15B25,2013-06-23 09:35:00,
2013-06-23 05:40:00,65.3,62.3,30.11,SSW,210,0.0,0.0,90,0.00,,,0.00,WeatherCatV1.15B25,2013-06-23 09:40:00,
2013-06-23 05:45:00,65.3,62.3,30.12,SSW,210,0.0,0.0,90,0.00,,,0.00,WeatherCatV1.15B25,2013-06-23 09:45:00,
2013-06-23 05:50:00,-999.0,32.0,30.12,North,0,0.0,0.0,50,0.00,,,0.00,WeatherCatV1.15B25,2013-06-23 09:50:00,
2013-06-23 05:55:00,-999.0,32.0,30.12,North,0,0.0,0.0,50,0.00,,,0.00,WeatherCatV1.15B25,2013-06-23 09:55:00,
2013-06-23 06:00:00,-999.0,32.0,30.12,North,0,0.0,0.0,50,0.00,,,0.00,WeatherCatV1.15B25,2013-06-23 10:00:00,
2013-06-23 06:05:00,-999.0,32.0,30.12,North,0,0.0,0.0,50,0.00,,,0.00,WeatherCatV1.15B25,2013-06-23 10:05:00,
2013-06-23 06:10:00,-999.0,32.0,30.11,North,0,0.0,0.0,50,0.00,,,0.00,WeatherCatV1.15B25,2013-06-23 10:10:00,
2013-06-23 06:15:00,-999.0,32.0,30.11,North,0,0.0,0.0,50,0.00,,,0.00,WeatherCatV1.15B25,2013-06-23 10:15:00,
2013-06-23 06:20:00,-999.0,32.0,30.11,North,0,0.0,0.0,50,0.00,,,0.00,WeatherCatV1.15B25,2013-06-23 10:20:00,
2013-06-23 06:25:00,-999.0,32.0,30.11,North,0,0.0,0.0,50,0.00,,,0.00,WeatherCatV1.15B25,2013-06-23 10:25:00,
2013-06-23 06:30:00,-999.0,32.0,30.12,North,0,0.0,0.0,50,0.00,,,0.00,WeatherCatV1.15B25,2013-06-23 10:30:00,
2013-06-23 06:35:00,-999.0,32.0,30.12,North,0,0.0,0.0,50,0.00,,,0.00,WeatherCatV1.15B25,2013-06-23 10:35:00,
2013-06-23 06:40:00,-999.0,32.0,30.12,North,0,0.0,0.0,50,0.00,,,0.00,WeatherCatV1.15B25,2013-06-23 10:40:00,
2013-06-23 06:45:00,-999.0,32.0,30.12,North,0,0.0,0.0,50,0.00,,,0.00,WeatherCatV1.15B25,2013-06-23 10:45:00,
2013-06-23 06:50:00,-999.0,32.0,30.12,SSW,210,0.0,2.0,50,0.00,,,0.00,WeatherCatV1.15B25,2013-06-23 10:50:00,
2013-06-23 06:55:00,66.9,63.9,30.12,SSW,210,0.0,2.0,90,0.00,,,0.00,WeatherCatV1.15B25,2013-06-23 10:55:00,
2013-06-23 07:00:00,67.0,64.0,30.12,SSW,210,0.0,0.0,90,0.00,,,0.00,WeatherCatV1.15B25,2013-06-23 11:00:00,
2013-06-23 07:05:00,66.9,63.9,30.12,SSW,210,0.0,2.0,90,0.00,,,0.00,WeatherCatV1.15B25,2013-06-23 11:05:00,
2013-06-23 07:10:00,67.0,64.0,30.12,SSW,210,0.0,0.0,90,0.00,,,0.00,WeatherCatV1.15B25,2013-06-23 11:10:00,
2013-06-23 07:15:00,67.0,64.0,30.11,SSW,210,0.0,0.0,90,0.00,,,0.00,WeatherCatV1.15B25,2013-06-23 11:15:00,
2013-06-23 07:20:00,67.0,63.6,30.12,SSW,210,0.0,0.0,89,0.00,,,0.00,WeatherCatV1.15B25,2013-06-23 11:20:00,
2013-06-23 07:25:00,67.0,64.0,30.13,SSW,210,0.0,0.0,90,0.00,,,0.00,WeatherCatV1.15B25,2013-06-23 11:25:00,
2013-06-23 07:30:00,67.0,62.3,30.13,SSW,210,0.0,0.0,85,0.00,,,0.00,WeatherCatV1.15B25,2013-06-23 11:30:00,
2013-06-23 07:35:00,67.0,62.3,30.13,SSW,210,0.0,2.0,85,0.00,,,0.00,WeatherCatV1.15B25,2013-06-23 11:35:00,
2013-06-23 07:40:00,69.7,64.6,30.12,SSW,210,0.0,3.0,84,0.00,,,0.00,WeatherCatV1.15B25,2013-06-23 11:40:00,
2013-06-23 07:45:00,69.7,64.6,30.12,SSW,210,0.0,0.0,84,0.00,,,0.00,WeatherCatV1.15B25,2013-06-23 11:45:00,
2013-06-23 07:50:00,69.8,64.7,30.13,SSW,210,0.0,3.0,84,0.00,,,0.00,WeatherCatV1.15B25,2013-06-23 11:50:00,
2013-06-23 07:55:00,69.8,64.7,30.12,SSW,210,0.0,0.0,84,0.00,,,0.00,WeatherCatV1.15B25,2013-06-23 11:55:00,
2013-06-23 08:00:00,70.3,65.2,30.13,SSW,210,0.0,0.0,84,0.00,,,0.00,WeatherCatV1.15B25,2013-06-23 12:00:00,
2013-06-23 08:05:00,71.0,65.6,30.13,SSW,210,0.0,0.0,83,0.00,,,0.00,WeatherCatV1.15B25,2013-06-23 12:05:00,
2013-06-23 08:10:00,71.0,65.6,30.13,SSW,210,0.0,0.0,83,0.00,,,0.00,WeatherCatV1.15B25,2013-06-23 12:10:00,
2013-06-23 08:15:00,71.0,64.9,30.13,SSW,210,0.0,0.0,81,0.00,,,0.00,WeatherCatV1.15B25,2013-06-23 12:15:00,
2013-06-23 08:20:00,71.0,64.9,30.13,SSW,210,1.0,3.0,81,0.00,,,0.00,WeatherCatV1.15B25,2013-06-23 12:20:00,
2013-06-23 08:25:00,73.3,67.1,30.14,SSW,205,0.0,2.0,81,0.00,,,0.00,WeatherCatV1.15B25,2013-06-23 12:25:00,
2013-06-23 08:30:00,73.5,65.8,30.14,SSW,205,2.0,3.0,77,0.00,,,0.00,WeatherCatV1.15B25,2013-06-23 12:30:00,
2013-06-23 08:35:00,73.6,65.9,30.14,SSW,205,0.0,4.0,77,0.00,,,0.00,WeatherCatV1.15B25,2013-06-23 12:35:00,
2013-06-23 08:40:00,73.4,65.7,30.12,SSW,205,1.0,2.0,77,0.00,,,0.00,WeatherCatV1.15B25,2013-06-23 12:40:00,
2013-06-23 08:45:00,73.4,66.1,30.13,SSW,205,0.0,0.0,78,0.00,,,0.00,WeatherCatV1.15B25,2013-06-23 12:45:00,
2013-06-23 08:50:00,73.4,66.5,30.13,SSW,205,1.0,2.0,79,0.00,,,0.00,WeatherCatV1.15B25,2013-06-23 12:50:00,
2013-06-23 08:55:00,73.4,66.5,30.13,SSW,205,2.0,3.0,79,0.00,,,0.00,WeatherCatV1.15B25,2013-06-23 12:55:00,
2013-06-23 09:00:00,73.6,67.0,30.12,SSW,205,0.0,2.0,80,0.00,,,0.00,WeatherCatV1.15B25,2013-06-23 13:00:00,
2013-06-23 09:05:00,73.9,67.0,30.13,SSW,205,0.0,2.0,79,0.00,,,0.00,WeatherCatV1.15B25,2013-06-23 13:05:00,
2013-06-23 09:06:00,73.9,67.3,30.12,SSW,205,0.0,0.0,80,0.00,,,0.00,WeatherCatV1.15B25,2013-06-23 13:06:00,
2013-06-23 09:11:00,74.3,66.6,30.13,SSW,205,0.0,2.0,77,0.00,,,0.00,WeatherCatV1.15B25,2013-06-23 13:11:00,
2013-06-23 09:16:00,75.1,67.0,30.12,SSW,205,0.0,3.0,76,0.00,,,0.00,WeatherCatV1.15B25,2013-06-23 13:16:00,
2013-06-23 09:21:00,75.6,67.9,30.11,SSW,205,0.0,3.0,77,0.00,,,0.00,WeatherCatV1.15B25,2013-06-23 13:21:00,
2013-06-23 09:26:00,76.7,68.5,30.12,SSW,205,0.0,4.0,76,0.00,,,0.00,WeatherCatV1.15B25,2013-06-23 13:26:00,
2013-06-23 09:31:00,77.0,68.1,30.12,SSW,205,4.0,4.0,74,0.00,,,0.00,WeatherCatV1.15B25,2013-06-23 13:31:00,
2013-06-23 09:32:00,77.1,68.2,30.12,SSW,205,0.0,4.0,74,0.00,,,0.00,WeatherCatV1.15B25,2013-06-23 13:32:00,
2013-06-23 09:36:00,78.1,68.7,30.12,SSW,205,0.0,3.0,73,0.00,,,0.00,WeatherCatV1.15B25,2013-06-23 13:36:00,
2013-06-23 09:41:00,78.5,68.7,30.12,SSW,205,3.0,4.0,72,0.00,,,0.00,WeatherCatV1.15B25,2013-06-23 13:41:00,
2013-06-23 09:46:00,79.0,69.2,30.12,SSW,205,1.0,3.0,72,0.00,,,0.00,WeatherCatV1.15B25,2013-06-23 13:46:00,
2013-06-23 09:51:00,79.4,69.6,30.12,SSW,205,0.0,3.0,72,0.00,,,0.00,WeatherCatV1.15B25,2013-06-23 13:51:00,
2013-06-23 09:56:00,80.3,70.0,30.11,SSW,205,0.0,3.0,71,0.00,,,0.00,WeatherCatV1.15B25,2013-06-23 13:56:00,
2013-06-23 10:00:00,80.7,69.6,30.11,SSW,205,3.0,5.0,69,0.00,,,0.00,WeatherCatV1.15B25,2013-06-23 14:00:00,
2013-06-23 10:05:00,80.9,69.8,30.11,SSW,207,0.0,0.0,69,0.00,,,0.00,WeatherCatV1.15B25,2013-06-23 14:05:00,
2013-06-23 10:10:00,81.1,70.4,30.11,SSW,207,1.0,3.0,70,0.00,,,0.00,WeatherCatV1.15B25,2013-06-23 14:10:00,
2013-06-23 10:15:00,81.3,70.6,30.10,SSW,207,0.0,2.0,70,0.00,,,0.00,WeatherCatV1.15B25,2013-06-23 14:15:00,
2013-06-23 10:20:00,81.4,71.1,30.10,SSW,212,0.0,2.0,71,0.00,,,0.00,WeatherCatV1.15B25,2013-06-23 14:20:00,
2013-06-23 10:25:00,82.0,70.8,30.10,WNW,292,0.0,5.0,69,0.00,,,0.00,WeatherCatV1.15B25,2013-06-23 14:25:00,
2013-06-23 10:30:00,82.4,71.2,30.10,WNW,286,1.0,3.0,69,0.00,,,0.00,WeatherCatV1.15B25,2013-06-23 14:30:00,
2013-06-23 10:35:00,82.5,71.3,30.10,West,277,2.0,4.0,69,0.00,,,0.00,WeatherCatV1.15B25,2013-06-23 14:35:00,
2013-06-23 10:40:00,82.8,71.1,30.10,WNW,283,1.0,4.0,68,0.00,,,0.00,WeatherCatV1.15B25,2013-06-23 14:40:00,
2013-06-23 10:45:00,82.8,71.6,30.10,WSW,257,0.0,0.0,69,0.00,,,0.00,WeatherCatV1.15B25,2013-06-23 14:45:00,
2013-06-23 10:50:00,82.6,71.4,30.10,SSW,207,2.0,2.0,69,0.00,,,0.00,WeatherCatV1.15B25,2013-06-23 14:50:00,
2013-06-23 10:55:00,82.4,71.6,30.09,SSW,206,0.0,4.0,70,0.00,,,0.00,WeatherCatV1.15B25,2013-06-23 14:55:00,
2013-06-23 11:00:00,82.4,71.6,30.10,SSW,206,0.0,3.0,70,0.00,,,0.00,WeatherCatV1.15B25,2013-06-23 15:00:00,
2013-06-23 11:05:00,82.6,71.8,30.10,SSW,206,0.0,2.0,70,0.00,,,0.00,WeatherCatV1.15B25,2013-06-23 15:05:00,
2013-06-23 11:10:00,82.8,71.6,30.09,SSW,206,0.0,0.0,69,0.00,,,0.00,WeatherCatV1.15B25,2013-06-23 15:10:00,
2013-06-23 11:15:00,82.8,73.2,30.10,SSW,206,0.0,3.0,73,0.00,,,0.00,WeatherCatV1.15B25,2013-06-23 15:15:00,
2013-06-23 11:20:00,83.2,73.2,30.09,SSW,206,1.0,3.0,72,0.00,,,0.00,WeatherCatV1.15B25,2013-06-23 15:20:00,
2013-06-23 11:25:00,83.4,72.1,30.10,SSW,206,0.0,0.0,69,0.00,,,0.00,WeatherCatV1.15B25,2013-06-23 15:25:00,
2013-06-23 11:30:00,83.6,72.3,30.10,SSW,206,0.0,2.0,69,0.00,,,0.00,WeatherCatV1.15B25,2013-06-23 15:30:00,
2013-06-23 11:35:00,83.5,73.1,30.09,SSW,206,0.0,2.0,71,0.00,,,0.00,WeatherCatV1.15B25,2013-06-23 15:35:00,
2013-06-23 11:40:00,83.6,73.2,30.09,SSW,206,0.0,3.0,71,0.00,,,0.00,WeatherCatV1.15B25,2013-06-23 15:40:00,
2013-06-23 11:45:00,83.4,73.0,30.09,SSW,206,1.0,2.0,71,0.00,,,0.00,WeatherCatV1.15B25,2013-06-23 15:45:00,
2013-06-23 11:50:00,83.2,73.6,30.09,SSW,206,2.0,4.0,73,0.00,,,0.00,WeatherCatV1.15B25,2013-06-23 15:50:00,
2013-06-23 11:55:00,83.6,74.0,30.08,SSW,206,0.0,2.0,73,0.00,,,0.00,WeatherCatV1.15B25,2013-06-23 15:55:00,
2013-06-23 12:00:00,84.3,73.4,30.09,SSW,206,1.0,2.0,70,0.00,,,0.00,WeatherCatV1.15B25,2013-06-23 16:00:00,
2013-06-23 12:05:00,85.3,74.4,30.09,SSW,203,0.0,5.0,70,0.00,,,0.00,WeatherCatV1.15B25,2013-06-23 16:05:00,
2013-06-23 12:10:00,85.9,74.9,30.08,SSW,205,1.0,3.0,70,0.00,,,0.00,WeatherCatV1.15B25,2013-06-23 16:10:00,
2013-06-23 12:15:00,86.5,75.1,30.08,WSW,238,2.0,3.0,69,0.00,,,0.00,WeatherCatV1.15B25,2013-06-23 16:15:00,
2013-06-23 12:20:00,86.5,75.1,30.08,SW,218,0.0,4.0,69,0.00,,,0.00,WeatherCatV1.15B25,2013-06-23 16:20:00,
2013-06-23 12:25:00,87.8,76.3,30.07,SW,217,1.0,4.0,69,0.00,,,0.00,WeatherCatV1.15B25,2013-06-23 16:25:00,
2013-06-23 12:30:00,88.0,75.6,30.07,SW,219,2.0,6.0,67,0.00,,,0.00,WeatherCatV1.15B25,2013-06-23 16:30:00,
2013-06-23 12:35:00,87.8,75.4,30.07,SW,222,1.0,3.0,67,0.00,,,0.00,WeatherCatV1.15B25,2013-06-23 16:35:00,
2013-06-23 12:40:00,88.6,77.5,30.07,SW,217,2.0,5.0,70,0.00,,,0.00,WeatherCatV1.15B25,2013-06-23 16:40:00,
2013-06-23 12:45:00,89.5,76.6,30.06,SW,218,5.0,5.0,66,0.00,,,0.00,WeatherCatV1.15B25,2013-06-23 16:45:00,
2013-06-23 12:50:00,89.7,75.9,30.06,SW,217,1.0,4.0,64,0.00,,,0.00,WeatherCatV1.15B25,2013-06-23 16:50:00,
2013-06-23 12:55:00,89.9,75.6,30.06,SSW,203,4.0,8.0,63,0.00,,,0.00,WeatherCatV1.15B25,2013-06-23 16:55:00,
2013-06-23 12:57:00,89.8,75.0,30.05,SW,214,0.0,5.0,62,0.00,,,0.00,WeatherCatV1.15B25,2013-06-23 16:57:00,
2013-06-23 13:01:00,89.9,76.5,30.05,SW,216,3.0,4.0,65,0.00,,,0.00,WeatherCatV1.15B25,2013-06-23 17:01:00,
2013-06-23 13:06:00,90.3,75.0,30.06,SW,224,2.0,4.0,61,0.00,,,0.00,WeatherCatV1.15B25,2013-06-23 17:06:00,
2013-06-23 13:11:00,90.5,75.7,30.05,SW,223,3.0,5.0,62,0.00,,,0.00,WeatherCatV1.15B25,2013-06-23 17:11:00,
2013-06-23 13:16:00,90.9,75.1,30.05,SSW,208,4.0,5.0,60,0.00,,,0.00,WeatherCatV1.15B25,2013-06-23 17:16:00,
2013-06-23 13:21:00,90.9,75.5,30.05,SSW,213,1.0,6.0,61,0.00,,,0.00,WeatherCatV1.15B25,2013-06-23 17:21:00,
2013-06-23 13:26:00,90.9,75.1,30.05,SSW,193,2.0,4.0,60,0.00,,,0.00,WeatherCatV1.15B25,2013-06-23 17:26:00,
2013-06-23 13:31:00,90.7,76.3,30.04,SSW,200,5.0,6.0,63,0.00,,,0.00,WeatherCatV1.15B25,2013-06-23 17:31:00,
2013-06-23 13:36:00,90.4,75.6,30.05,SSW,200,1.0,4.0,62,0.00,,,0.00,WeatherCatV1.15B25,2013-06-23 17:36:00,
2013-06-23 13:41:00,90.5,75.7,30.04,SSW,198,4.0,6.0,62,0.00,,,0.00,WeatherCatV1.15B25,2013-06-23 17:41:00,
2013-06-23 13:46:00,90.1,75.3,30.04,SSW,199,5.0,7.0,62,0.00,,,0.00,WeatherCatV1.15B25,2013-06-23 17:46:00,
2013-06-23 13:51:00,90.3,75.5,30.03,SSW,192,1.0,3.0,62,0.00,,,0.00,WeatherCatV1.15B25,2013-06-23 17:51:00,
2013-06-23 13:56:00,90.7,75.8,30.04,SW,224,6.0,6.0,62,0.00,,,0.00,WeatherCatV1.15B25,2013-06-23 17:56:00,
2013-06-23 14:01:00,90.7,75.4,30.03,SW,214,3.0,7.0,61,0.00,,,0.00,WeatherCatV1.15B25,2013-06-23 18:01:00,
2013-06-23 14:06:00,90.4,74.6,30.03,South,185,6.0,7.0,60,0.00,,,0.00,WeatherCatV1.15B25,2013-06-23 18:06:00,
2013-06-23 14:11:00,90.9,75.5,30.03,SSW,205,2.0,5.0,61,0.00,,,0.00,WeatherCatV1.15B25,2013-06-23 18:11:00,
2013-06-23 14:16:00,91.2,75.8,30.02,SSW,196,5.0,10.0,61,0.00,,,0.00,WeatherCatV1.15B25,2013-06-23 18:16:00,
2013-06-23 14:21:00,90.7,74.4,30.02,SW,232,4.0,13.0,59,0.00,,,0.00,WeatherCatV1.15B25,2013-06-23 18:21:00,
2013-06-23 14:26:00,90.7,75.4,30.03,NW,306,1.0,3.0,61,0.00,,,0.00,WeatherCatV1.15B25,2013-06-23 18:26:00,
2013-06-23 14:31:00,90.7,75.8,30.03,SW,226,0.0,7.0,62,0.00,,,0.00,WeatherCatV1.15B25,2013-06-23 18:31:00,
2013-06-23 14:36:00,91.3,76.4,30.02,SSW,197,9.0,10.0,62,0.00,,,0.00,WeatherCatV1.15B25,2013-06-23 18:36:00,
2013-06-23 14:41:00,91.4,74.5,30.02,SSW,198,5.0,11.0,58,0.00,,,0.00,WeatherCatV1.15B25,2013-06-23 18:41:00,
2013-06-23 14:46:00,91.1,75.2,30.02,SW,215,4.0,7.0,60,0.00,,,0.00,WeatherCatV1.15B25,2013-06-23 18:46:00,
2013-06-23 14:51:00,91.1,75.7,30.02,SSW,205,3.0,4.0,61,0.00,,,0.00,WeatherCatV1.15B25,2013-06-23 18:51:00,
2013-06-23 14:56:00,91.6,76.2,30.01,SW,217,4.0,7.0,61,0.00,,,0.00,WeatherCatV1.15B25,2013-06-23 18:56:00,
2013-06-23 15:01:00,91.8,75.4,30.02,SSW,199,0.0,6.0,59,0.00,,,0.00,WeatherCatV1.15B25,2013-06-23 19:01:00,
2013-06-23 15:06:00,91.8,75.9,30.01,SSW,212,6.0,13.0,60,0.00,,,0.00,WeatherCatV1.15B25,2013-06-23 19:06:00,
2013-06-23 15:11:00,91.6,75.7,30.01,SSW,193,3.0,6.0,60,0.00,,,0.00,WeatherCatV1.15B25,2013-06-23 19:11:00,
2013-06-23 15:16:00,90.9,74.5,30.01,SSW,200,4.0,4.0,59,0.00,,,0.00,WeatherCatV1.15B25,2013-06-23 19:16:00,
2013-06-23 15:21:00,90.7,75.4,30.01,SSW,200,2.0,5.0,61,0.00,,,0.00,WeatherCatV1.15B25,2013-06-23 19:21:00,
2013-06-23 15:26:00,90.5,74.7,30.01,SSW,204,4.0,10.0,60,0.00,,,0.00,WeatherCatV1.15B25,2013-06-23 19:26:00,
2013-06-23 15:31:00,90.3,74.5,30.00,South,175,1.0,11.0,60,0.00,,,0.00,WeatherCatV1.15B25,2013-06-23 19:31:00,
2013-06-23 15:36:00,90.3,75.0,30.00,SSW,212,1.0,4.0,61,0.00,,,0.00,WeatherCatV1.15B25,2013-06-23 19:36:00,
2013-06-23 15:41:00,90.3,74.5,30.00,South,172,2.0,11.0,60,0.00,,,0.00,WeatherCatV1.15B25,2013-06-23 19:41:00,
2013-06-23 15:46:00,90.2,74.9,30.00,SSW,209,0.0,7.0,61,0.00,,,0.00,WeatherCatV1.15B25,2013-06-23 19:46:00,
2013-06-23 15:51:00,90.1,74.3,30.00,SSW,197,4.0,8.0,60,0.00,,,0.00,WeatherCatV1.15B25,2013-06-23 19:51:00,
2013-06-23 15:56:00,89.6,74.3,30.00,SSW,199,5.0,8.0,61,0.00,,,0.00,WeatherCatV1.15B25,2013-06-23 19:56:00,
2013-06-23 16:01:00,89.7,75.4,30.00,SSW,192,5.0,9.0,63,0.00,,,0.00,WeatherCatV1.15B25,2013-06-23 20:01:00,
2013-06-23 16:06:00,89.4,75.1,30.00,SSE,155,4.0,6.0,63,0.00,,,0.00,WeatherCatV1.15B25,2013-06-23 20:06:00,
2013-06-23 16:11:00,89.2,75.4,30.00,SSW,200,2.0,4.0,64,0.00,,,0.00,WeatherCatV1.15B25,2013-06-23 20:11:00,
2013-06-23 16:16:00,89.0,74.3,29.99,SW,218,1.0,4.0,62,0.00,,,0.00,WeatherCatV1.15B25,2013-06-23 20:16:00,
2013-06-23 16:21:00,89.0,74.3,30.00,SW,216,2.0,5.0,62,0.00,,,0.00,WeatherCatV1.15B25,2013-06-23 20:21:00,
2013-06-23 16:26:00,89.0,74.7,29.99,SSW,199,4.0,6.0,63,0.00,,,0.00,WeatherCatV1.15B25,2013-06-23 20:26:00,
2013-06-23 16:31:00,89.0,74.3,29.99,South,175,3.0,8.0,62,0.00,,,0.00,WeatherCatV1.15B25,2013-06-23 20:31:00,
2013-06-23 16:36:00,89.0,74.7,29.99,South,172,0.0,8.0,63,0.00,,,0.00,WeatherCatV1.15B25,2013-06-23 20:36:00,
2013-06-23 16:41:00,88.8,75.0,29.98,WSW,239,1.0,5.0,64,0.00,,,0.00,WeatherCatV1.15B25,2013-06-23 20:41:00,
2013-06-23 16:46:00,88.8,74.1,29.99,SSW,203,2.0,8.0,62,0.00,,,0.00,WeatherCatV1.15B25,2013-06-23 20:46:00,
2013-06-23 16:51:00,88.8,74.5,29.99,SSW,205,5.0,6.0,63,0.00,,,0.00,WeatherCatV1.15B25,2013-06-23 20:51:00,
2013-06-23 16:56:00,88.6,74.4,29.99,SSW,200,5.0,7.0,63,0.00,,,0.00,WeatherCatV1.15B25,2013-06-23 20:56:00,
2013-06-23 17:01:00,88.2,74.0,29.99,SW,220,3.0,8.0,63,0.00,,,0.00,WeatherCatV1.15B25,2013-06-23 21:01:00,
2013-06-23 17:06:00,88.2,74.4,29.99,South,189,5.0,8.0,64,0.00,,,0.00,WeatherCatV1.15B25,2013-06-23 21:06:00,
2013-06-23 17:11:00,87.8,74.1,29.98,SSW,203,2.0,6.0,64,0.00,,,0.00,WeatherCatV1.15B25,2013-06-23 21:11:00,
2013-06-23 17:16:00,87.8,74.5,29.98,SW,222,2.0,4.0,65,0.00,,,0.00,WeatherCatV1.15B25,2013-06-23 21:16:00,
2013-06-23 17:21:00,87.6,73.9,29.98,SSW,200,2.0,11.0,64,0.00,,,0.00,WeatherCatV1.15B25,2013-06-23 21:21:00,
2013-06-23 17:26:00,87.4,73.7,29.97,SSW,209,3.0,10.0,64,0.00,,,0.00,WeatherCatV1.15B25,2013-06-23 21:26:00,
2013-06-23 17:31:00,87.2,73.5,29.97,SW,214,7.0,11.0,64,0.00,,,0.00,WeatherCatV1.15B25,2013-06-23 21:31:00,
2013-06-23 17:36:00,87.0,73.3,29.98,SW,223,0.0,4.0,64,0.00,,,0.00,WeatherCatV1.15B25,2013-06-23 21:36:00,
2013-06-23 17:41:00,87.0,73.3,29.97,SSW,205,4.0,5.0,64,0.00,,,0.00,WeatherCatV1.15B25,2013-06-23 21:41:00,
2013-06-23 17:46:00,87.0,74.2,29.98,South,182,0.0,0.0,66,0.00,,,0.00,WeatherCatV1.15B25,2013-06-23 21:46:00,
2013-06-23 17:51:00,86.7,73.5,29.97,SSW,208,2.0,5.0,65,0.00,,,0.00,WeatherCatV1.15B25,2013-06-23 21:51:00,
2013-06-23 17:56:00,86.8,73.6,29.96,SSW,207,1.0,4.0,65,0.00,,,0.00,WeatherCatV1.15B25,2013-06-23 21:56:00,
2013-06-23 18:01:00,86.5,73.3,29.97,SSW,206,5.0,7.0,65,0.00,,,0.00,WeatherCatV1.15B25,2013-06-23 22:01:00,
2013-06-23 18:04:00,86.5,72.8,29.97,South,185,2.0,10.0,64,0.00,,,0.00,WeatherCatV1.15B25,2013-06-23 22:04:00,
2013-06-23 18:09:00,86.5,73.8,29.97,South,184,4.0,5.0,66,0.00,,,0.00,WeatherCatV1.15B25,2013-06-23 22:09:00,
2013-06-23 18:14:00,86.6,73.4,29.97,SSW,196,0.0,4.0,65,0.00,,,0.00,WeatherCatV1.15B25,2013-06-23 22:14:00,
2013-06-23 18:19:00,86.6,72.9,29.97,SSE,147,0.0,0.0,64,0.00,,,0.00,WeatherCatV1.15B25,2013-06-23 22:19:00,
2013-06-23 18:24:00,86.6,72.9,29.98,SSW,201,0.0,0.0,64,0.00,,,0.00,WeatherCatV1.15B25,2013-06-23 22:24:00,
2013-06-23 18:29:00,86.6,72.9,29.99,SSW,201,0.0,0.0,64,0.00,,,0.00,WeatherCatV1.15B25,2013-06-23 22:29:00,
2013-06-23 18:34:00,86.6,72.9,29.99,SSW,201,0.0,0.0,64,0.00,,,0.00,WeatherCatV1.15B25,2013-06-23 22:34:00,
2013-06-23 18:39:00,86.6,72.9,29.99,SSW,201,0.0,0.0,64,0.00,,,0.00,WeatherCatV1.15B25,2013-06-23 22:39:00,
2013-06-23 18:44:00,86.1,72.9,29.99,SSW,210,4.0,5.0,65,0.00,,,0.00,WeatherCatV1.15B25,2013-06-23 22:44:00,
2013-06-23 18:49:00,86.2,73.0,29.99,SSW,210,0.0,0.0,65,0.00,,,0.00,WeatherCatV1.15B25,2013-06-23 22:49:00,
2013-06-23 18:54:00,86.2,73.0,29.98,SSW,212,0.0,0.0,65,0.00,,,0.00,WeatherCatV1.15B25,2013-06-23 22:54:00,
2013-06-23 18:59:00,86.2,73.0,29.98,SSW,212,0.0,0.0,65,0.00,,,0.00,WeatherCatV1.15B25,2013-06-23 22:59:00,
2013-06-23 19:04:00,85.3,72.6,29.98,SSW,205,0.0,3.0,66,0.00,,,0.00,WeatherCatV1.15B25,2013-06-23 23:04:00,
2013-06-23 19:09:00,85.3,72.6,29.98,SSW,205,0.0,0.0,66,0.00,,,0.00,WeatherCatV1.15B25,2013-06-23 23:09:00,
2013-06-23 19:14:00,85.3,72.6,29.98,SSW,205,0.0,0.0,66,0.00,,,0.00,WeatherCatV1.15B25,2013-06-23 23:14:00,
2013-06-23 19:19:00,85.3,72.6,29.99,SSW,205,0.0,0.0,66,0.00,,,0.00,WeatherCatV1.15B25,2013-06-23 23:19:00,
2013-06-23 19:24:00,85.3,72.6,29.99,SSW,205,0.0,0.0,66,0.00,,,0.00,WeatherCatV1.15B25,2013-06-23 23:24:00,
2013-06-23 19:29:00,85.3,72.6,29.99,SSW,205,0.0,0.0,66,0.00,,,0.00,WeatherCatV1.15B25,2013-06-23 23:29:00,
2013-06-23 19:34:00,-999.0,32.0,30.00,NNW,348,0.0,0.0,50,0.00,,,0.00,WeatherCatV1.15B25,2013-06-23 23:34:00,
2013-06-23 19:39:00,-999.0,32.0,29.99,North,0,0.0,0.0,50,0.00,,,0.00,WeatherCatV1.15B25,2013-06-23 23:39:00,
2013-06-23 19:44:00,-999.0,32.0,29.99,North,0,0.0,0.0,50,0.00,,,0.00,WeatherCatV1.15B25,2013-06-23 23:44:00,
2013-06-23 19:49:00,-999.0,32.0,30.00,North,0,0.0,0.0,50,0.00,,,0.00,WeatherCatV1.15B25,2013-06-23 23:49:00,
2013-06-23 19:54:00,-999.0,32.0,30.00,North,0,0.0,0.0,50,0.00,,,0.00,WeatherCatV1.15B25,2013-06-23 23:54:00,
2013-06-23 19:59:00,-999.0,32.0,29.99,North,0,0.0,0.0,50,0.00,,,0.00,WeatherCatV1.15B25,2013-06-23 23:59:00,
2013-06-23 20:04:00,-999.0,32.0,30.00,North,0,0.0,0.0,50,0.00,,,0.00,WeatherCatV1.15B25,2013-06-24 00:04:00,
2013-06-23 20:09:00,-999.0,32.0,30.00,North,0,0.0,0.0,50,0.00,,,0.00,WeatherCatV1.15B25,2013-06-24 00:09:00,
2013-06-23 20:14:00,-999.0,32.0,30.00,North,0,0.0,0.0,50,0.00,,,0.00,WeatherCatV1.15B25,2013-06-24 00:14:00,
2013-06-23 20:19:00,-999.0,32.0,30.00,North,0,0.0,0.0,50,0.00,,,0.00,WeatherCatV1.15B25,2013-06-24 00:19:00,
2013-06-23 20:24:00,80.5,70.6,30.00,SSW,209,0.0,4.0,72,0.00,,,0.00,WeatherCatV1.15B25,2013-06-24 00:24:00,
2013-06-23 20:29:00,80.1,70.2,30.01,SSW,209,2.0,5.0,72,0.00,,,0.00,WeatherCatV1.15B25,2013-06-24 00:29:00,
2013-06-23 20:34:00,80.1,70.2,30.00,SSW,209,0.0,0.0,72,0.00,,,0.00,WeatherCatV1.15B25,2013-06-24 00:34:00,
2013-06-23 20:39:00,80.1,70.2,30.00,SSW,209,0.0,0.0,72,0.00,,,0.00,WeatherCatV1.15B25,2013-06-24 00:39:00,
2013-06-23 20:44:00,80.1,70.2,30.00,SSW,209,0.0,0.0,72,0.00,,,0.00,WeatherCatV1.15B25,2013-06-24 00:44:00,
2013-06-23 20:49:00,80.1,70.2,30.01,SSW,209,0.0,0.0,72,0.00,,,0.00,WeatherCatV1.15B25,2013-06-24 00:49:00,
2013-06-23 20:54:00,80.1,70.2,30.01,SSW,209,0.0,0.0,72,0.00,,,0.00,WeatherCatV1.15B25,2013-06-24 00:54:00,
2013-06-23 20:59:00,80.1,70.2,30.01,SSW,209,0.0,0.0,72,0.00,,,0.00,WeatherCatV1.15B25,2013-06-24 00:59:00,
2013-06-23 21:04:00,-999.0,32.0,30.01,SW,236,0.0,0.0,50,0.00,,,0.00,WeatherCatV1.15B25,2013-06-24 01:04:00,
2013-06-23 21:09:00,78.8,70.2,30.02,SSW,209,0.0,0.0,75,0.00,,,0.00,WeatherCatV1.15B25,2013-06-24 01:09:00,
2013-06-23 21:14:00,78.8,70.2,30.01,SSW,209,0.0,0.0,75,0.00,,,0.00,WeatherCatV1.15B25,2013-06-24 01:14:00,
2013-06-23 21:19:00,78.3,70.1,30.01,SSW,209,3.0,5.0,76,0.00,,,0.00,WeatherCatV1.15B25,2013-06-24 01:19:00,
2013-06-23 21:24:00,78.3,70.5,30.02,SSW,209,0.0,0.0,77,0.00,,,0.00,WeatherCatV1.15B25,2013-06-24 01:24:00,
2013-06-23 21:29:00,78.3,70.5,30.02,SSW,209,0.0,3.0,77,0.00,,,0.00,WeatherCatV1.15B25,2013-06-24 01:29:00,
2013-06-23 21:34:00,77.9,70.5,30.02,SSW,209,1.0,3.0,78,0.00,,,0.00,WeatherCatV1.15B25,2013-06-24 01:34:00,
2013-06-23 21:39:00,77.8,70.7,30.03,SSW,209,4.0,5.0,79,0.00,,,0.00,WeatherCatV1.15B25,2013-06-24 01:39:00,
2013-06-23 21:44:00,77.6,70.2,30.04,SSW,209,1.0,3.0,78,0.00,,,0.00,WeatherCatV1.15B25,2013-06-24 01:44:00,
2013-06-23 21:49:00,77.6,70.6,30.03,SSW,209,0.0,0.0,79,0.00,,,0.00,WeatherCatV1.15B25,2013-06-24 01:49:00,
2013-06-23 21:54:00,77.6,70.6,30.03,SSW,209,0.0,0.0,79,0.00,,,0.00,WeatherCatV1.15B25,2013-06-24 01:54:00,
2013-06-23 21:59:00,77.4,70.4,30.03,SSW,209,0.0,0.0,79,0.00,,,0.00,WeatherCatV1.15B25,2013-06-24 01:59:00,
2013-06-23 22:04:00,77.4,70.7,30.04,SSW,209,0.0,0.0,80,0.00,,,0.00,WeatherCatV1.15B25,2013-06-24 02:04:00,
2013-06-23 22:09:00,77.2,70.5,30.03,SSW,209,0.0,3.0,80,0.00,,,0.00,WeatherCatV1.15B25,2013-06-24 02:09:00,
2013-06-23 22:14:00,77.0,70.7,30.03,SSW,209,0.0,3.0,81,0.00,,,0.00,WeatherCatV1.15B25,2013-06-24 02:14:00,
2013-06-23 22:19:00,77.1,70.8,30.03,SSW,209,0.0,4.0,81,0.00,,,0.00,WeatherCatV1.15B25,2013-06-24 02:19:00,
2013-06-23 22:24:00,76.9,70.6,30.04,SSW,209,0.0,3.0,81,0.00,,,0.00,WeatherCatV1.15B25,2013-06-24 02:24:00,
2013-06-23 22:29:00,76.9,71.0,30.04,SSW,209,2.0,4.0,82,0.00,,,0.00,WeatherCatV1.15B25,2013-06-24 02:29:00,
2013-06-23 22:34:00,76.7,70.8,30.03,SSW,209,0.0,1.0,82,0.00,,,0.00,WeatherCatV1.15B25,2013-06-24 02:34:00,
2013-06-23 22:39:00,76.5,70.6,30.03,SSW,209,0.0,0.0,82,0.00,,,0.00,WeatherCatV1.15B25,2013-06-24 02:39:00,
2013-06-23 22:44:00,76.3,70.7,30.03,SSW,210,1.0,3.0,83,0.00,,,0.00,WeatherCatV1.15B25,2013-06-24 02:44:00,
2013-06-23 22:49:00,76.2,71.0,30.02,SSW,209,1.0,3.0,84,0.00,,,0.00,WeatherCatV1.15B25,2013-06-24 02:49:00,
2013-06-23 22:54:00,76.2,71.0,30.02,SSW,209,1.0,3.0,84,0.00,,,0.00,WeatherCatV1.15B25,2013-06-24 02:54:00,
2013-06-23 22:59:00,76.0,70.8,30.03,SSW,209,2.0,4.0,84,0.00,,,0.00,WeatherCatV1.15B25,2013-06-24 02:59:00,
2013-06-23 23:03:00,76.0,71.2,30.02,SSW,209,1.0,3.0,85,0.00,,,0.00,WeatherCatV1.15B25,2013-06-24 03:03:00,
2013-06-23 23:08:00,75.8,71.0,30.02,SSW,209,3.0,3.0,85,0.00,,,0.00,WeatherCatV1.15B25,2013-06-24 03:08:00,
2013-06-23 23:13:00,75.8,71.0,30.02,SSW,209,0.0,0.0,85,0.00,,,0.00,WeatherCatV1.15B25,2013-06-24 03:13:00,
2013-06-23 23:18:00,75.8,71.0,30.02,SSW,209,0.0,0.0,85,0.00,,,0.00,WeatherCatV1.15B25,2013-06-24 03:18:00,
2013-06-23 23:23:00,75.5,71.0,30.02,SSW,209,0.0,4.0,86,0.00,,,0.00,WeatherCatV1.15B25,2013-06-24 03:23:00,
2013-06-23 23:28:00,75.5,71.0,30.01,SSW,209,0.0,2.0,86,0.00,,,0.00,WeatherCatV1.15B25,2013-06-24 03:28:00,
2013-06-23 23:33:00,75.2,71.1,30.01,SSW,209,0.0,4.0,87,0.00,,,0.00,WeatherCatV1.15B25,2013-06-24 03:33:00,
2013-06-23 23:38:00,75.1,71.0,30.01,SSW,209,0.0,3.0,87,0.00,,,0.00,WeatherCatV1.15B25,2013-06-24 03:38:00,
2013-06-23 23:43:00,75.1,71.0,30.01,SSW,209,2.0,3.0,87,0.00,,,0.00,WeatherCatV1.15B25,2013-06-24 03:43:00,
2013-06-23 23:48:00,74.9,70.8,30.01,SSW,209,0.0,2.0,87,0.00,,,0.00,WeatherCatV1.15B25,2013-06-24 03:48:00,
2013-06-23 23:53:00,74.9,70.8,30.00,SSW,209,0.0,0.0,87,0.00,,,0.00,WeatherCatV1.15B25,2013-06-24 03:53:00,
2013-06-23 23:58:00,74.9,70.8,30.01,SSW,209,0.0,0.0,87,0.00,,,0.00,WeatherCatV1.15B25,2013-06-24 03:58:00,